Time;durP1;ratioP1;P1;durP2;ratioP2;P2;SDS_P1;SDS_P2;PMS_P1;PMS_P2;Temp;Humidity;BMP_temperature;BMP_pressure;BME280_temperature;BME280_humidity;BME280_pressure;Samples;Min_cycle;Max_cycle;Signal;HPM_P1;HPM_P2
2023/08/15 00:01:48;;;;;;;6.90;4.40;;;;;;;26.23;35.84;101013.34;104641;1285;67385;-88
2023/08/15 00:04:14;;;;;;;5.30;4.80;;;;;;;26.23;35.64;101008.19;104563;1285;69126;-88
2023/08/15 00:06:40;;;;;;;7.00;4.90;;;;;;;26.23;35.68;101002.11;104589;1287;69276;-88
2023/08/15 00:09:15;;;;;;;5.40;4.80;;;;;;;26.22;35.75;101005.41;104357;1285;69290;-93
2023/08/15 00:11:40;;;;;;;7.90;4.50;;;;;;;26.21;35.72;101006.50;104457;1286;69083;-88
2023/08/15 00:14:06;;;;;;;5.20;4.70;;;;;;;26.21;35.71;101007.59;104528;1289;69307;-88
2023/08/15 00:16:32;;;;;;;5.10;4.60;;;;;;;26.21;35.81;101003.73;104476;1286;69192;-88
2023/08/15 00:18:57;;;;;;;5.40;4.40;;;;;;;26.21;35.77;100999.60;104499;1286;69184;-88
2023/08/15 00:21:23;;;;;;;5.60;4.40;;;;;;;26.20;35.70;100994.20;104419;1285;67357;-89
2023/08/15 00:23:48;;;;;;;6.70;4.70;;;;;;;26.20;35.85;100982.08;104348;1288;69279;-88
2023/08/15 00:26:14;;;;;;;5.40;4.50;;;;;;;26.20;35.95;100987.59;104513;1289;69330;-88
2023/08/15 00:28:40;;;;;;;5.70;4.60;;;;;;;26.20;35.77;100992.85;104577;1285;69249;-88
2023/08/15 00:31:06;;;;;;;5.80;4.70;;;;;;;26.20;36.01;100995.08;104558;1287;69281;-88
2023/08/15 00:33:31;;;;;;;5.10;4.60;;;;;;;26.19;35.91;101000.71;104559;1285;69268;-88
2023/08/15 00:38:37;;;;;;;5.00;4.50;;;;;;;26.19;36.05;101000.92;104424;1285;69741;-88
2023/08/15 00:41:03;;;;;;;5.50;4.70;;;;;;;26.18;35.97;101005.15;104506;1286;69211;-88
2023/08/15 00:43:28;;;;;;;5.00;4.50;;;;;;;26.18;36.27;101000.46;104401;1291;69267;-88
2023/08/15 00:45:54;;;;;;;5.50;4.60;;;;;;;26.18;36.04;100998.19;104568;1288;69595;-87
2023/08/15 00:48:20;;;;;;;6.90;4.40;;;;;;;26.18;36.14;100994.95;104619;1288;67324;-88
2023/08/15 00:50:47;;;;;;;5.80;4.60;;;;;;;26.18;36.23;100992.10;104447;1286;69265;-87
2023/08/15 00:53:13;;;;;;;5.50;4.80;;;;;;;26.18;36.16;100987.52;104486;1285;69246;-88
2023/08/15 00:55:38;;;;;;;4.90;4.40;;;;;;;26.18;36.16;100978.14;104623;1285;69342;-88
2023/08/15 00:58:04;;;;;;;5.60;4.60;;;;;;;26.17;36.18;100974.69;104567;1285;69119;-88
2023/08/15 01:00:30;;;;;;;5.80;4.60;;;;;;;26.17;36.19;100973.05;104514;1284;69374;-88
2023/08/15 01:03:04;;;;;;;5.60;4.50;;;;;;;26.17;36.10;100966.95;104593;1285;69177;-92
2023/08/15 01:05:29;;;;;;;8.30;4.80;;;;;;;26.17;36.19;100967.94;104285;1289;74597;-88
2023/08/15 01:07:55;;;;;;;5.60;4.50;;;;;;;26.17;36.26;100973.05;104441;1291;69528;-88
2023/08/15 01:10:21;;;;;;;5.40;4.60;;;;;;;26.16;36.25;100974.38;104611;1288;69253;-88
2023/08/15 01:12:47;;;;;;;5.20;4.30;;;;;;;26.16;36.27;100971.41;104363;1285;69218;-88
2023/08/15 01:15:18;;;;;;;5.10;4.50;;;;;;;26.16;36.47;100965.52;104585;1285;69177;-87
2023/08/15 01:18:03;;;;;;;4.90;4.20;;;;;;;26.16;36.38;100957.06;104164;1285;74366;-88
2023/08/15 01:20:32;;;;;;;5.70;4.70;;;;;;;26.15;36.58;100952.68;104451;1286;69268;-87
2023/08/15 01:22:59;;;;;;;5.20;4.60;;;;;;;26.15;36.47;100954.85;104302;1289;69272;-88
2023/08/15 01:25:26;;;;;;;5.70;4.40;;;;;;;26.15;36.45;100955.56;104514;1286;69228;-88
2023/08/15 01:27:51;;;;;;;5.70;4.20;;;;;;;26.15;36.49;100962.38;104414;1286;69214;-88
2023/08/15 01:30:17;;;;;;;5.00;4.30;;;;;;;26.15;36.61;100956.98;104646;1285;69253;-88
2023/08/15 01:35:33;;;;;;;4.80;4.30;;;;;;;26.15;36.73;100937.48;104421;1285;69144;-88
2023/08/15 01:38:04;;;;;;;5.10;4.60;;;;;;;26.14;36.78;100929.09;104336;1285;69623;-88
2023/08/15 01:40:32;;;;;;;6.00;4.30;;;;;;;26.14;36.73;100925.38;104640;1285;69061;-88
2023/08/15 01:42:58;;;;;;;6.10;4.50;;;;;;;26.14;36.81;100921.81;104345;1285;74619;-88
2023/08/15 01:45:23;;;;;;;5.50;4.40;;;;;;;26.14;36.68;100928.21;104362;1287;69230;-88
2023/08/15 01:47:51;;;;;;;4.90;4.40;;;;;;;26.13;36.89;100928.42;104267;1288;69375;-91
2023/08/15 01:50:17;;;;;;;5.80;4.50;;;;;;;26.14;36.77;100926.45;104087;1288;69225;-88
2023/08/15 01:52:42;;;;;;;5.20;4.40;;;;;;;26.14;36.67;100924.04;104195;1290;69298;-87
2023/08/15 01:55:08;;;;;;;4.80;4.30;;;;;;;26.14;36.75;100923.77;104482;1287;70339;-87
2023/08/15 01:57:34;;;;;;;6.00;4.80;;;;;;;26.14;36.69;100928.98;104545;1288;69269;-88
2023/08/15 01:59:59;;;;;;;5.50;4.40;;;;;;;26.14;36.70;100929.96;104552;1286;69147;-88
2023/08/15 02:02:25;;;;;;;4.50;4.00;;;;;;;26.14;36.60;100916.25;104278;1288;69145;-88
2023/08/15 02:04:50;;;;;;;4.60;4.10;;;;;;;26.13;36.75;100903.88;105169;1287;69257;-88
2023/08/15 02:07:16;;;;;;;5.70;4.60;;;;;;;26.13;36.86;100904.96;104752;1293;69253;-88
2023/08/15 02:09:41;;;;;;;7.20;4.20;;;;;;;26.13;36.74;100902.02;104349;1288;69287;-88
2023/08/15 02:12:07;;;;;;;5.20;4.30;;;;;;;26.14;36.78;100894.84;104316;1288;69680;-88
2023/08/15 02:17:17;;;;;;;4.70;4.20;;;;;;;26.13;36.82;100895.33;104140;1288;346598;-88
2023/08/15 02:19:43;;;;;;;4.90;4.30;;;;;;;26.13;36.83;100906.52;104508;1290;69254;-88
2023/08/15 02:22:08;;;;;;;5.00;4.10;;;;;;;26.13;37.04;100916.30;104273;1285;69318;-88
2023/08/15 02:24:34;;;;;;;5.10;4.60;;;;;;;26.13;36.71;100919.30;104559;1286;69253;-88
2023/08/15 02:26:59;;;;;;;6.00;4.60;;;;;;;26.13;36.69;100927.70;104313;1288;69306;-88
2023/08/15 02:29:25;;;;;;;5.00;4.30;;;;;;;26.13;36.84;100930.54;104322;1285;69276;-88
2023/08/15 02:31:50;;;;;;;4.80;4.10;;;;;;;26.13;36.73;100914.50;104268;1286;69247;-88
2023/08/15 02:34:17;;;;;;;5.80;4.50;;;;;;;26.13;36.73;100905.94;104290;1288;67150;-87
2023/08/15 02:36:49;;;;;;;5.30;4.10;;;;;;;26.13;36.84;100915.59;104255;1285;69180;-87
2023/08/15 02:39:16;;;;;;;5.70;4.50;;;;;;;26.12;36.71;100935.81;104335;1289;69656;-88
2023/08/15 02:41:43;;;;;;;6.00;4.70;;;;;;;26.12;36.68;100939.21;104181;1286;69161;-88
2023/08/15 02:44:08;;;;;;;5.00;4.40;;;;;;;26.12;36.66;100927.29;104318;1285;69203;-87
2023/08/15 02:46:34;;;;;;;4.90;4.00;;;;;;;26.12;36.82;100922.50;104248;1285;69279;-87
2023/08/15 02:48:59;;;;;;;6.00;4.60;;;;;;;26.12;36.76;100905.69;104431;1287;69574;-88
2023/08/15 02:51:25;;;;;;;5.30;4.30;;;;;;;26.12;36.91;100894.20;104251;1292;69273;-87
2023/08/15 02:53:50;;;;;;;4.80;4.30;;;;;;;26.12;36.67;100892.55;104456;1286;69310;-89
2023/08/15 02:56:16;;;;;;;6.00;4.20;;;;;;;26.12;36.56;100893.77;104385;1287;69238;-88
2023/08/15 02:58:42;;;;;;;6.40;4.50;;;;;;;26.11;36.81;100897.80;104400;1288;69204;-88
2023/08/15 03:01:07;;;;;;;4.80;4.40;;;;;;;26.11;36.77;100898.84;104314;1286;69028;-88
2023/08/15 03:03:33;;;;;;;6.90;4.60;;;;;;;26.11;36.78;100891.63;104387;1286;69306;-88
2023/08/15 03:06:02;;;;;;;5.50;4.10;;;;;;;26.11;36.72;100878.68;104270;1285;69230;-88
2023/08/15 03:08:30;;;;;;;5.10;4.00;;;;;;;26.10;36.69;100879.30;104484;1287;74519;-93
2023/08/15 03:10:56;;;;;;;4.70;4.10;;;;;;;26.11;36.63;100875.23;104372;1287;69151;-87
2023/08/15 03:13:21;;;;;;;7.10;4.30;;;;;;;26.10;36.55;100877.91;104252;1288;69252;-87
2023/08/15 03:15:54;;;;;;;4.70;4.30;;;;;;;26.11;36.68;100884.15;104485;1285;69305;-87
2023/08/15 03:18:20;;;;;;;4.40;4.00;;;;;;;26.10;36.58;100901.84;104462;1288;69125;-87
2023/08/15 03:20:58;;;;;;;5.30;4.10;;;;;;;26.11;36.83;100910.96;104487;1288;67967;-88
2023/08/15 03:23:39;;;;;;;5.80;4.10;;;;;;;26.10;36.57;100903.13;104317;1289;69038;-92
2023/08/15 03:26:04;;;;;;;;;;;;;;;26.10;36.71;100893.44;104305;1285;69270;-87
2023/08/15 03:28:30;;;;;;;4.30;3.90;;;;;;;26.08;36.67;100881.75;104508;1287;69243;-88
2023/08/15 03:30:56;;;;;;;4.80;4.30;;;;;;;26.09;36.71;100880.81;104585;1286;69238;-88
2023/08/15 03:33:22;;;;;;;4.80;4.40;;;;;;;26.09;36.54;100894.84;104566;1286;69387;-87
2023/08/15 03:35:49;;;;;;;5.30;4.00;;;;;;;26.09;36.47;100910.20;104258;1288;70112;-87
2023/08/15 03:41:05;;;;;;;4.30;3.90;;;;;;;26.09;36.46;100882.31;104400;1285;69354;-87
2023/08/15 03:43:31;;;;;;;4.60;4.20;;;;;;;26.09;36.62;100849.14;104474;1287;69080;-87
2023/08/15 03:45:57;;;;;;;5.90;4.20;;;;;;;26.10;36.67;100815.56;104447;1285;69138;-88
2023/08/15 03:48:23;;;;;;;5.30;4.20;;;;;;;26.09;36.60;100784.02;104414;1288;69138;-87
2023/08/15 03:50:49;;;;;;;4.90;4.20;;;;;;;26.10;36.66;100782.05;104256;1288;69261;-87
2023/08/15 03:55:51;;;;;;;5.20;4.10;;;;;;;26.09;36.75;100775.58;104848;1284;69090;-88
2023/08/15 03:58:18;;;;;;;4.50;4.00;;;;;;;26.08;36.68;100780.52;104898;1282;73461;-87
2023/08/15 04:00:45;;;;;;;5.10;4.50;;;;;;;26.09;36.58;100780.27;104622;1282;69247;-88
2023/08/15 04:03:10;;;;;;;5.50;4.20;;;;;;;26.09;36.39;100796.45;104866;1286;69131;-88
2023/08/15 04:05:36;;;;;;;4.40;4.00;;;;;;;26.09;36.56;100833.11;104948;1282;69249;-88
2023/08/15 04:08:02;;;;;;;6.80;4.00;;;;;;;26.09;36.58;100881.16;104675;1286;69195;-88
2023/08/15 04:10:29;;;;;;;5.30;4.50;;;;;;;26.10;36.63;100907.16;104882;1282;69252;-88
2023/08/15 04:12:55;;;;;;;4.20;3.80;;;;;;;26.10;36.53;100915.45;104686;1282;69307;-88
2023/08/15 04:15:21;;;;;;;5.20;4.20;;;;;;;26.10;36.47;100912.31;104603;1288;69212;-87
2023/08/15 04:17:46;;;;;;;4.90;4.10;;;;;;;26.10;36.69;100908.38;104934;1282;69129;-88
2023/08/15 04:20:20;;;;;;;5.30;4.20;;;;;;;26.11;36.66;100905.89;104737;1282;69490;-92
2023/08/15 04:22:46;;;;;;;4.90;4.30;;;;;;;26.11;36.80;100882.49;104633;1282;69273;-87
2023/08/15 04:25:11;;;;;;;4.80;4.20;;;;;;;26.11;36.61;100817.73;104811;1283;69303;-88
2023/08/15 04:27:37;;;;;;;6.80;4.40;;;;;;;26.10;36.68;100763.89;104959;1285;69228;-88
2023/08/15 04:30:05;;;;;;;5.00;4.00;;;;;;;26.10;36.63;100784.41;104944;1282;69228;-87
2023/08/15 04:32:31;;;;;;;4.90;4.30;;;;;;;26.10;36.69;100867.39;104573;1285;69123;-88
2023/08/15 04:34:57;;;;;;;4.10;3.70;;;;;;;26.10;36.64;100906.23;104488;1282;69292;-88
2023/08/15 04:37:22;;;;;;;4.80;4.40;;;;;;;26.11;36.70;100922.66;104617;1282;69805;-87
2023/08/15 04:39:48;;;;;;;4.40;4.00;;;;;;;26.11;36.72;100944.90;104892;1286;69275;-88
2023/08/15 04:42:13;;;;;;;6.00;4.30;;;;;;;26.11;36.70;100964.07;104804;1282;73690;-88
2023/08/15 04:44:39;;;;;;;4.80;4.30;;;;;;;26.11;36.70;100965.05;104909;1285;69160;-88
2023/08/15 04:47:15;;;;;;;4.60;4.20;;;;;;;26.12;36.42;100977.73;104602;1282;69702;-93
2023/08/15 04:49:42;;;;;;;4.50;4.10;;;;;;;26.11;36.48;100986.20;104661;1288;69261;-87
2023/08/15 04:52:08;;;;;;;4.70;3.80;;;;;;;26.11;36.50;100992.69;104745;1285;69076;-88
2023/08/15 04:54:33;;;;;;;4.70;4.10;;;;;;;26.12;36.73;101007.64;104693;1283;69317;-88
2023/08/15 04:56:59;;;;;;;5.10;4.50;;;;;;;26.12;36.52;101006.00;104710;1288;69255;-88
2023/08/15 04:59:25;;;;;;;4.20;3.80;;;;;;;26.12;36.55;101003.83;104888;1283;69211;-88
2023/08/15 05:01:50;;;;;;;6.20;4.30;;;;;;;26.12;36.47;100996.41;105139;1284;69234;-89
2023/08/15 05:04:16;;;;;;;4.60;4.10;;;;;;;26.13;36.52;101004.91;105871;1285;67913;-88
2023/08/15 05:06:41;;;;;;;4.70;4.20;;;;;;;26.13;36.53;101006.20;106746;1285;67185;-88
2023/08/15 05:09:07;;;;;;;5.30;3.90;;;;;;;26.13;36.45;101003.30;106432;1286;69398;-89
2023/08/15 05:11:32;;;;;;;5.20;4.30;;;;;;;26.13;36.47;101004.45;106115;1285;67717;-89
2023/08/15 05:16:37;;;;;;;4.80;4.30;;;;;;;26.15;36.69;100999.63;106355;1286;68181;-88
2023/08/15 05:19:02;;;;;;;5.30;4.10;;;;;;;26.16;36.65;100994.51;105896;1288;67284;-88
2023/08/15 05:21:28;;;;;;;4.80;4.30;;;;;;;26.16;36.67;100991.98;104477;1287;69219;-88
2023/08/15 05:23:54;;;;;;;4.60;4.10;;;;;;;26.17;36.43;100994.65;104400;1290;69272;-88
2023/08/15 05:26:19;;;;;;;5.40;4.00;;;;;;;26.17;36.48;100995.02;105853;1285;69221;-89
2023/08/15 05:28:45;;;;;;;4.20;3.80;;;;;;;26.18;36.44;100994.33;104318;1291;69264;-88
2023/08/15 05:31:10;;;;;;;4.20;3.90;;;;;;;26.18;36.59;100997.61;105551;1285;66783;-88
2023/08/15 05:33:36;;;;;;;4.70;4.10;;;;;;;26.18;36.45;100989.52;104495;1290;69263;-87
2023/08/15 05:36:01;;;;;;;4.90;3.90;;;;;;;26.19;36.53;100993.29;104524;1288;69220;-88
2023/08/15 05:38:27;;;;;;;5.20;4.00;;;;;;;26.19;36.49;100991.69;104516;1288;69397;-88
2023/08/15 05:41:08;;;;;;;5.50;3.90;;;;;;;26.18;36.53;100994.79;104201;1287;69238;-92
2023/08/15 05:43:34;;;;;;;4.70;3.90;;;;;;;26.18;36.51;100991.44;104366;1290;69125;-88
2023/08/15 05:45:59;;;;;;;7.40;4.10;;;;;;;26.17;36.55;100987.32;104266;1286;69260;-88
2023/08/15 05:48:25;;;;;;;4.50;4.10;;;;;;;26.18;36.37;100987.48;104545;1290;69180;-87
2023/08/15 05:50:50;;;;;;;4.70;4.20;;;;;;;26.18;36.50;100997.47;104591;1290;69540;-88
2023/08/15 05:53:16;;;;;;;4.60;3.90;;;;;;;26.18;36.48;100995.98;104562;1290;69737;-88
2023/08/15 05:55:42;;;;;;;4.20;3.80;;;;;;;26.18;36.45;100994.02;104226;1286;69354;-88
2023/08/15 05:58:08;;;;;;;4.50;4.00;;;;;;;26.17;36.44;100991.66;104272;1288;69215;-88
2023/08/15 06:00:34;;;;;;;4.40;4.00;;;;;;;26.17;36.69;100996.96;104264;1292;69334;-88
2023/08/15 06:03:00;;;;;;;5.80;3.90;;;;;;;26.17;36.43;101004.86;104605;1290;69266;-88
2023/08/15 06:05:29;;;;;;;5.50;4.20;;;;;;;26.16;36.52;101000.70;104078;1291;69277;-88
2023/08/15 06:07:56;;;;;;;4.90;3.80;;;;;;;26.17;36.53;100995.58;104309;1286;74597;-93
2023/08/15 06:10:21;;;;;;;4.90;3.70;;;;;;;26.16;36.72;100999.97;104170;1288;69340;-87
2023/08/15 06:12:47;;;;;;;5.20;4.00;;;;;;;26.16;36.71;101004.88;104525;1287;69218;-88
2023/08/15 06:15:14;;;;;;;5.60;4.00;;;;;;;26.15;36.68;101012.61;104532;1287;69126;-88
2023/08/15 06:17:41;;;;;;;6.20;4.10;;;;;;;26.15;36.64;101013.30;104242;1294;69258;-86
2023/08/15 06:20:07;;;;;;;6.40;4.20;;;;;;;26.15;36.50;101004.46;104547;1289;69251;-87
2023/08/15 06:22:33;;;;;;;4.50;4.10;;;;;;;26.15;36.68;100998.34;104360;1291;69266;-87
2023/08/15 06:24:58;;;;;;;4.90;4.10;;;;;;;26.15;36.54;101003.34;104485;1285;69708;-88
2023/08/15 06:27:24;;;;;;;6.30;4.20;;;;;;;26.15;36.74;101002.30;104564;1290;69196;-88
2023/08/15 06:29:49;;;;;;;4.30;3.80;;;;;;;26.15;36.51;101004.16;104586;1287;73568;-88
2023/08/15 06:32:27;;;;;;;7.30;4.10;;;;;;;26.15;36.65;101004.05;104418;1286;69195;-88
2023/08/15 06:34:53;;;;;;;5.00;4.30;;;;;;;26.15;36.73;101004.48;104467;1286;69053;-89
2023/08/15 06:37:19;;;;;;;5.90;4.10;;;;;;;26.15;36.62;101004.06;104352;1286;69225;-88
2023/08/15 06:39:44;;;;;;;4.30;3.90;;;;;;;26.15;36.74;101009.46;104502;1290;69193;-88
2023/08/15 06:42:10;;;;;;;5.50;4.00;;;;;;;26.15;36.74;101005.34;104589;1291;69274;-88
2023/08/15 06:44:37;;;;;;;4.30;3.90;;;;;;;26.16;36.61;101015.34;104413;1286;69293;-88
2023/08/15 06:47:02;;;;;;;5.10;4.20;;;;;;;26.16;36.65;101018.48;104532;1286;69314;-88
2023/08/15 06:49:28;;;;;;;5.90;4.30;;;;;;;26.16;36.68;101022.35;104374;1286;69217;-88
2023/08/15 06:51:53;;;;;;;6.30;4.00;;;;;;;26.17;36.78;101028.38;104493;1286;69279;-88
2023/08/15 06:54:19;;;;;;;5.80;4.10;;;;;;;26.17;36.74;101027.66;104548;1286;69278;-88
2023/08/15 06:56:46;;;;;;;6.10;4.50;;;;;;;26.17;36.65;101024.67;104349;1291;70589;-88
2023/08/15 06:59:11;;;;;;;6.00;4.30;;;;;;;26.17;36.67;101023.95;104436;1290;69279;-88
2023/08/15 07:01:37;;;;;;;5.10;4.20;;;;;;;26.17;36.55;101019.86;104525;1286;69270;-89
2023/08/15 07:04:03;;;;;;;6.60;4.10;;;;;;;26.17;36.75;101009.92;104365;1285;67931;-88
2023/08/15 07:06:28;;;;;;;6.30;4.20;;;;;;;26.17;36.59;101008.56;104187;1289;69299;-88
2023/08/15 07:08:54;;;;;;;6.10;4.00;;;;;;;26.18;36.69;101012.16;104383;1289;69247;-88
2023/08/15 07:11:20;;;;;;;6.10;4.60;;;;;;;26.17;36.84;101007.85;104213;1297;69228;-88
2023/08/15 07:13:45;;;;;;;5.60;4.30;;;;;;;26.18;36.66;101000.00;104439;1285;69243;-88
2023/08/15 07:16:11;;;;;;;4.60;4.20;;;;;;;26.18;36.62;100992.41;104430;1286;69219;-88
2023/08/15 07:18:37;;;;;;;4.70;4.30;;;;;;;26.19;36.72;100984.88;104538;1291;69292;-88
2023/08/15 07:21:03;;;;;;;6.60;4.20;;;;;;;26.19;36.81;100983.17;104429;1286;69719;-88
2023/08/15 07:23:29;;;;;;;5.40;4.30;;;;;;;26.19;36.67;100991.89;104410;1287;67391;-88
2023/08/15 07:25:54;;;;;;;4.60;4.10;;;;;;;26.20;36.55;101007.56;104279;1286;69255;-88
2023/08/15 07:28:20;;;;;;;6.50;4.40;;;;;;;26.20;36.61;100999.70;104385;1291;69306;-88
2023/08/15 07:30:45;;;;;;;7.20;5.00;;;;;;;26.21;36.81;100993.10;104366;1292;69178;-88
2023/08/15 07:33:13;;;;;;;4.60;4.20;;;;;;;26.21;36.69;100994.20;104027;1286;69434;-88
2023/08/15 07:35:39;;;;;;;4.60;4.20;;;;;;;26.21;36.77;101002.64;104676;1286;69234;-88
2023/08/15 07:38:05;;;;;;;5.20;4.40;;;;;;;26.22;36.57;101007.27;104311;1291;69373;-88
2023/08/15 07:40:32;;;;;;;5.60;4.40;;;;;;;26.22;36.83;100999.23;104371;1300;69396;-93
2023/08/15 07:42:58;;;;;;;5.10;4.50;;;;;;;26.22;36.89;100991.13;104301;1292;69293;-88
2023/08/15 07:45:23;;;;;;;5.90;4.90;;;;;;;26.22;36.77;100994.42;104546;1289;69279;-88
2023/08/15 07:47:51;;;;;;;7.10;4.60;;;;;;;26.23;36.73;100992.23;104462;1289;69334;-88
2023/08/15 07:50:22;;;;;;;5.30;4.80;;;;;;;26.24;36.69;100998.11;104201;1286;69155;-88
2023/08/15 07:52:48;;;;;;;5.60;4.60;;;;;;;26.24;36.88;101007.80;104242;1287;70217;-88
2023/08/15 07:55:13;;;;;;;4.90;4.40;;;;;;;26.24;36.90;101013.17;104277;1286;69361;-88
2023/08/15 07:57:39;;;;;;;6.00;5.00;;;;;;;26.25;36.90;101006.14;104557;1286;70751;-88
2023/08/15 08:00:06;;;;;;;4.90;4.20;;;;;;;26.25;36.74;101007.69;104582;1286;69273;-88
2023/08/15 08:02:33;;;;;;;4.80;4.40;;;;;;;26.26;36.87;101014.06;104526;1290;67287;-88
2023/08/15 08:04:59;;;;;;;5.70;4.70;;;;;;;26.27;36.88;101018.44;104596;1288;69273;-89
2023/08/15 08:07:31;;;;;;;5.80;4.80;;;;;;;26.29;36.84;101027.40;104438;1287;69183;-93
2023/08/15 08:09:57;;;;;;;6.70;4.70;;;;;;;26.29;37.03;101026.73;104418;1289;73517;-89
2023/08/15 08:12:23;;;;;;;5.00;4.50;;;;;;;26.29;36.82;101029.14;104550;1288;69321;-89
2023/08/15 08:14:49;;;;;;;5.50;4.40;;;;;;;26.30;36.74;101035.99;104761;1286;69216;-88
2023/08/15 08:17:14;;;;;;;6.90;5.00;;;;;;;26.29;36.80;101043.23;104388;1287;69209;-89
2023/08/15 08:19:40;;;;;;;8.50;4.80;;;;;;;26.30;36.83;101043.02;104613;1287;67791;-89
2023/08/15 08:22:05;;;;;;;6.50;4.50;;;;;;;26.30;36.92;101037.79;104491;1286;69259;-89
2023/08/15 08:24:31;;;;;;;6.50;4.80;;;;;;;26.32;36.97;101041.33;104366;1286;69380;-89
2023/08/15 08:26:57;;;;;;;7.60;4.80;;;;;;;26.32;36.96;101026.90;104626;1287;69282;-88
2023/08/15 08:29:23;;;;;;;6.20;4.60;;;;;;;26.32;37.10;101020.39;104399;1286;69382;-89
2023/08/15 08:31:49;;;;;;;5.90;4.90;;;;;;;26.31;36.97;101016.17;104352;1286;69284;-88
2023/08/15 08:34:30;;;;;;;5.90;4.70;;;;;;;26.31;37.01;101025.55;104318;1286;69320;-94
2023/08/15 08:36:56;;;;;;;5.20;4.70;;;;;;;26.31;36.94;101028.51;104344;1290;69215;-89
2023/08/15 08:39:21;;;;;;;6.10;4.80;;;;;;;26.32;36.95;101024.52;104438;1286;69314;-89
2023/08/15 08:41:47;;;;;;;5.30;4.80;;;;;;;26.33;36.98;101010.27;104668;1289;69260;-89
2023/08/15 08:44:13;;;;;;;5.30;4.80;;;;;;;26.33;36.89;101009.76;105101;1286;69221;-89
2023/08/15 08:46:39;;;;;;;5.20;4.70;;;;;;;26.34;36.99;101016.23;105193;1287;69945;-89
2023/08/15 08:49:04;;;;;;;5.00;4.50;;;;;;;26.35;36.86;101010.09;104241;1288;69149;-88
2023/08/15 08:51:32;;;;;;;5.40;4.80;;;;;;;26.35;37.04;101000.95;104313;1290;69263;-88
2023/08/15 08:53:57;;;;;;;5.30;4.80;;;;;;;26.35;37.07;100999.35;104467;1289;69241;-89
2023/08/15 08:56:27;;;;;;;6.50;5.00;;;;;;;26.36;36.99;100994.55;104461;1289;69209;-88
2023/08/15 08:58:58;;;;;;;5.80;5.00;;;;;;;26.37;36.93;100996.39;104257;1286;69080;-89
2023/08/15 09:01:24;;;;;;;5.40;4.90;;;;;;;26.37;36.87;100997.98;104463;1285;69202;-89
2023/08/15 09:03:49;;;;;;;9.00;4.80;;;;;;;26.38;37.14;100990.55;104379;1286;69321;-89
2023/08/15 09:06:15;;;;;;;6.00;5.20;;;;;;;26.38;36.88;100985.29;104607;1285;69221;-89
2023/08/15 09:08:41;;;;;;;5.70;5.20;;;;;;;26.38;36.97;100987.44;104569;1286;67797;-89
2023/08/15 09:11:06;;;;;;;7.50;5.40;;;;;;;26.38;37.00;100986.88;104570;1287;67186;-89
2023/08/15 09:13:32;;;;;;;6.90;5.10;;;;;;;26.38;37.00;100978.67;104499;1286;67158;-89
2023/08/15 09:15:59;;;;;;;5.50;4.80;;;;;;;26.38;37.08;100972.16;104265;1286;69312;-88
2023/08/15 09:18:32;;;;;;;7.50;5.50;;;;;;;26.38;37.08;100974.85;104561;1291;69093;-88
2023/08/15 09:20:57;;;;;;;6.40;4.90;;;;;;;26.38;37.05;100974.28;104353;1286;69178;-89
2023/08/15 09:23:23;;;;;;;5.60;5.00;;;;;;;26.38;37.28;100971.59;104407;1287;69310;-88
2023/08/15 09:25:53;;;;;;;7.50;5.30;;;;;;;26.39;37.12;100969.30;104392;1288;69263;-89
2023/08/15 09:28:19;;;;;;;6.10;5.30;;;;;;;26.39;37.15;100960.03;104612;1288;72500;-90
2023/08/15 09:30:54;;;;;;;6.10;5.20;;;;;;;26.40;37.26;100958.41;104405;1291;69343;-89
2023/08/15 09:33:22;;;;;;;6.10;4.90;;;;;;;26.39;37.31;100939.23;104298;1286;69165;-89
2023/08/15 09:35:48;;;;;;;5.80;5.20;;;;;;;26.39;37.15;100929.73;104438;1291;69920;-88
2023/08/15 09:38:14;;;;;;;7.30;4.90;;;;;;;26.40;37.15;100928.13;104432;1286;69219;-89
2023/08/15 09:40:42;;;;;;;5.60;5.00;;;;;;;26.40;37.15;100930.35;104288;1286;69251;-89
2023/08/15 09:43:14;;;;;;;5.60;5.00;;;;;;;26.41;37.25;100927.92;104514;1286;69294;-93
2023/08/15 09:45:40;;;;;;;6.90;5.40;;;;;;;26.42;37.05;100927.70;104169;1286;69199;-89
2023/08/15 09:48:05;;;;;;;6.90;5.10;;;;;;;26.43;37.15;100930.46;104484;1287;69273;-89
2023/08/15 09:50:31;;;;;;;5.80;5.30;;;;;;;26.43;37.13;100919.98;104474;1286;69481;-89
2023/08/15 09:52:56;;;;;;;6.40;5.00;;;;;;;26.44;37.16;100913.27;104433;1286;69305;-89
2023/08/15 09:55:22;;;;;;;7.40;5.20;;;;;;;26.43;37.25;100912.14;104405;1288;69161;-89
2023/08/15 09:57:49;;;;;;;7.50;5.40;;;;;;;26.44;37.22;100905.32;104302;1287;69346;-89
2023/08/15 10:00:16;;;;;;;5.90;5.30;;;;;;;26.45;37.43;100899.23;104256;1292;69100;-89
2023/08/15 10:02:44;;;;;;;6.00;5.30;;;;;;;26.46;37.32;100892.09;104506;1286;73584;-89
2023/08/15 10:05:11;;;;;;;5.60;5.10;;;;;;;26.46;37.25;100893.23;104216;1288;69259;-89
2023/08/15 10:07:37;;;;;;;6.60;5.50;;;;;;;26.46;37.23;100893.42;104453;1287;69252;-88
2023/08/15 10:10:03;;;;;;;7.70;5.60;;;;;;;26.47;37.29;100888.25;104320;1286;69241;-93
2023/08/15 10:12:29;;;;;;;6.80;5.80;;;;;;;26.48;37.45;100888.34;104343;1286;69256;-89
2023/08/15 10:14:55;;;;;;;8.10;5.20;;;;;;;26.48;37.43;100890.09;104372;1288;70524;-88
2023/08/15 10:17:20;;;;;;;6.20;5.60;;;;;;;26.48;37.54;100887.66;104350;1290;69340;-88
2023/08/15 10:19:48;;;;;;;8.30;5.70;;;;;;;26.48;37.67;100878.89;104574;1286;69186;-89
2023/08/15 10:22:18;;;;;;;8.80;5.10;;;;;;;26.48;37.51;100889.14;104388;1287;69141;-89
2023/08/15 10:24:46;;;;;;;5.70;5.20;;;;;;;26.49;37.53;100893.27;104191;1286;73533;-89
2023/08/15 10:27:20;;;;;;;7.80;5.40;;;;;;;26.49;37.56;100887.52;104689;1281;69084;-88
2023/08/15 10:29:58;;;;;;;6.70;5.60;;;;;;;26.50;37.55;100887.20;104444;1292;69336;-88
2023/08/15 10:32:28;;;;;;;6.20;5.60;;;;;;;26.51;37.57;100895.35;104655;1285;66537;-88
2023/08/15 10:35:05;;;;;;;11.90;6.20;;;;;;;26.51;37.66;100898.80;104627;1285;69147;-88
2023/08/15 10:37:33;;;;;;;6.70;6.00;;;;;;;26.52;37.49;100894.19;104566;1285;73602;-88
2023/08/15 10:40:10;;;;;;;6.80;5.90;;;;;;;26.52;37.67;100897.54;104331;1285;69008;-89
2023/08/15 10:42:57;;;;;;;8.70;5.80;;;;;;;26.53;37.67;100895.27;104108;1285;69048;-88
2023/08/15 10:45:23;;;;;;;7.10;5.80;;;;;;;26.53;37.79;100896.86;104448;1289;69192;-88
2023/08/15 10:47:49;;;;;;;11.20;6.30;;;;;;;26.54;37.67;100893.70;104606;1288;69285;-88
2023/08/15 10:50:15;;;;;;;10.40;6.40;;;;;;;26.54;37.84;100887.19;104626;1289;69101;-88
2023/08/15 10:52:41;;;;;;;10.40;6.90;;;;;;;26.54;37.98;100889.77;104636;1285;69256;-89
2023/08/15 10:55:07;;;;;;;9.70;6.60;;;;;;;26.55;38.02;100892.45;104884;1290;69306;-89
2023/08/15 10:57:32;;;;;;;9.90;6.80;;;;;;;26.55;37.98;100888.36;105688;1289;69083;-88
2023/08/15 10:59:58;;;;;;;8.00;6.40;;;;;;;26.56;37.96;100879.48;105856;1292;73541;-88
2023/08/15 11:02:23;;;;;;;9.40;6.70;;;;;;;26.57;38.13;100865.98;106160;1286;66929;-89
2023/08/15 11:04:49;;;;;;;7.00;6.30;;;;;;;26.59;38.20;100856.36;105566;1286;69197;-88
2023/08/15 11:07:25;;;;;;;7.30;6.60;;;;;;;26.60;38.23;100841.69;104544;1286;69304;-88
2023/08/15 11:09:51;;;;;;;10.10;6.50;;;;;;;26.61;38.25;100849.20;105805;1286;69270;-91
2023/08/15 11:12:17;;;;;;;6.40;5.70;;;;;;;26.62;38.11;100847.16;104818;1286;69230;-88
2023/08/15 11:14:42;;;;;;;9.20;6.40;;;;;;;26.64;38.19;100847.92;104614;1286;69278;-88
2023/08/15 11:17:08;;;;;;;8.50;6.30;;;;;;;26.65;38.21;100845.21;104667;1286;69263;-88
2023/08/15 11:19:33;;;;;;;9.40;6.30;;;;;;;26.66;38.07;100850.71;104967;1286;67383;-88
2023/08/15 11:22:00;;;;;;;9.10;6.40;;;;;;;26.66;38.15;100848.86;104583;1286;69155;-89
2023/08/15 11:24:30;;;;;;;8.50;6.20;;;;;;;26.66;38.28;100850.76;104356;1286;69190;-88
2023/08/15 11:26:57;;;;;;;6.40;5.80;;;;;;;26.66;38.17;100846.80;104293;1288;69096;-88
2023/08/15 11:29:22;;;;;;;7.30;5.70;;;;;;;26.67;38.05;100846.41;104439;1289;69036;-88
2023/08/15 11:31:48;;;;;;;6.70;6.00;;;;;;;26.67;38.13;100848.58;104666;1286;70444;-88